Time;durP1;ratioP1;P1;durP2;ratioP2;P2;SDS_P1;SDS_P2;PMS_P1;PMS_P2;Temp;Humidity;BMP_temperature;BMP_pressure;BME280_temperature;BME280_humidity;BME280_pressure;Samples;Min_cycle;Max_cycle;Signal;HPM_P1;HPM_P2
2022/03/27 00:02:12;;;;;;;;;;;11.70;99.90;;;;;;5093237;28;19971;-63
2022/03/27 00:04:41;;;;;;;;;;;11.70;99.90;;;;;;5093573;28;19931;-62
2022/03/27 00:07:09;;;;;;;;;;;11.60;99.90;;;;;;5093361;28;20019;-61
2022/03/27 00:09:36;;;;;;;;;;;11.70;99.90;;;;;;5094216;28;20026;-63
2022/03/27 00:12:06;;;;;;;;;;;11.70;99.90;;;;;;5087660;28;19946;-62
2022/03/27 00:14:34;;;;;;;;;;;11.60;99.90;;;;;;5091174;28;19963;-63
2022/03/27 00:17:01;;;;;;;;;;;11.60;99.90;;;;;;5089184;28;20348;-63
2022/03/27 00:19:29;;;;;;;;;;;11.60;99.90;;;;;;5094050;28;19927;-63
2022/03/27 00:21:57;;;;;;;;;;;11.50;99.90;;;;;;5089808;28;20018;-62
2022/03/27 00:24:25;;;;;;;;;;;11.50;99.90;;;;;;5090539;28;19984;-63
2022/03/27 00:26:53;;;;;;;;;;;11.40;99.90;;;;;;5093768;28;19967;-63
2022/03/27 00:29:22;;;;;;;;;;;11.40;99.90;;;;;;5090582;28;20026;-63
2022/03/27 00:31:49;;;;;;;;;;;11.40;99.90;;;;;;5092807;28;20375;-63
2022/03/27 00:34:19;;;;;;;;;;;11.30;99.90;;;;;;5080568;28;19931;-62
2022/03/27 00:36:47;;;;;;;;;;;11.20;99.90;;;;;;5089083;28;20018;-63
2022/03/27 00:39:14;;;;;;;;;;;11.20;99.90;;;;;;5093662;28;20458;-62
2022/03/27 00:41:43;;;;;;;;;;;11.20;99.90;;;;;;5091503;28;20015;-62
2022/03/27 00:44:11;;;;;;;;;;;11.20;99.90;;;;;;5087219;28;19966;-62
2022/03/27 00:46:40;;;;;;;;;;;11.10;99.90;;;;;;5093607;28;19963;-62
2022/03/27 00:49:07;;;;;;;;;;;11.10;99.90;;;;;;5090905;28;20015;-62
2022/03/27 00:51:35;;;;;;;;;;;11.10;99.90;;;;;;5092384;28;19931;-62
2022/03/27 00:54:04;;;;;;;;;;;11.20;99.90;;;;;;5086888;28;19960;-62
2022/03/27 00:56:31;;;;;;;;;;;11.10;99.90;;;;;;5091338;28;19924;-63
2022/03/27 00:58:59;;;;;;;;;;;11.10;99.90;;;;;;5091309;28;19959;-61
2022/03/27 01:01:32;;;;;;;;;;;11.10;99.90;;;;;;5093222;28;20019;-61
2022/03/27 01:04:02;;;;;;;;;;;11.00;99.90;;;;;;5087033;28;19964;-62
2022/03/27 01:06:31;;;;;;;;;;;11.10;99.90;;;;;;5085558;28;19978;-62
2022/03/27 01:11:45;;;;;;;;;;;11.10;99.90;;;;;;5086718;28;19993;-62
2022/03/27 01:14:14;;;;;;;;;;;11.10;99.90;;;;;;5092930;28;19989;-61
2022/03/27 01:16:42;;;;;;;;;;;11.00;99.90;;;;;;5089123;28;20011;-62
2022/03/27 01:19:12;;;;;;;;;;;11.10;99.90;;;;;;5090959;28;19924;-62
2022/03/27 01:21:42;;;;;;;;;;;11.00;99.90;;;;;;5093035;28;20022;-62
2022/03/27 01:24:10;;;;;;;;;;;11.00;99.90;;;;;;5091518;28;19973;-61
2022/03/27 01:26:39;;;;;;;;;;;11.00;99.90;;;;;;5092930;28;19923;-63
2022/03/27 01:29:07;;;;;;;;;;;11.00;99.90;;;;;;5089779;28;19928;-63
2022/03/27 01:31:36;;;;;;;;;;;11.00;99.90;;;;;;5092772;28;20019;-64
2022/03/27 01:34:04;;;;;;;;;;;11.00;99.90;;;;;;5086464;28;19924;-62
2022/03/27 01:36:34;;;;;;;;;;;11.00;99.90;;;;;;5086289;28;19924;-64
2022/03/27 01:39:05;;;;;;;;;;;11.00;99.90;;;;;;5090170;28;19928;-63
2022/03/27 01:41:32;;;;;;;;;;;11.00;99.90;;;;;;5092669;28;19924;-63
2022/03/27 01:44:00;;;;;;;;;;;11.00;99.90;;;;;;5090436;28;20019;-63
2022/03/27 01:46:31;;;;;;;;;;;11.00;99.90;;;;;;5092634;28;19962;-63
2022/03/27 01:49:00;;;;;;;;;;;11.00;99.90;;;;;;5090053;28;19943;-63
2022/03/27 01:51:28;;;;;;;;;;;11.00;99.90;;;;;;5092605;28;20026;-63
2022/03/27 01:53:56;;;;;;;;;;;11.00;99.90;;;;;;5091101;28;19985;-63
2022/03/27 01:56:25;;;;;;;;;;;10.90;99.90;;;;;;5092379;28;19974;-62
2022/03/27 01:58:53;;;;;;;;;;;11.00;99.90;;;;;;5089118;28;19951;-63
2022/03/27 02:01:21;;;;;;;;;;;10.90;99.90;;;;;;5091486;28;20054;-63
2022/03/27 02:03:49;;;;;;;;;;;10.90;99.90;;;;;;5087415;28;19960;-64
2022/03/27 02:06:18;;;;;;;;;;;10.90;99.90;;;;;;5087768;28;19967;-63
2022/03/27 02:08:46;;;;;;;;;;;10.90;99.90;;;;;;5091834;28;19928;-63
2022/03/27 02:11:15;;;;;;;;;;;11.00;99.90;;;;;;5091303;28;20019;-63
2022/03/27 02:13:44;;;;;;;;;;;11.00;99.90;;;;;;5089702;28;20009;-63
2022/03/27 02:16:11;;;;;;;;;;;11.00;99.90;;;;;;5089741;28;19924;-63
2022/03/27 02:18:41;;;;;;;;;;;11.00;99.90;;;;;;5091810;28;19924;-63
2022/03/27 02:21:09;;;;;;;;;;;11.00;99.90;;;;;;5091674;28;19924;-63
2022/03/27 02:23:37;;;;;;;;;;;11.00;99.90;;;;;;5088529;28;20006;-64
2022/03/27 02:26:05;;;;;;;;;;;11.00;99.90;;;;;;5090832;28;20016;-63
2022/03/27 02:28:33;;;;;;;;;;;11.00;99.90;;;;;;5089999;28;19924;-63
2022/03/27 02:31:02;;;;;;;;;;;11.00;99.90;;;;;;5089612;28;19939;-63
2022/03/27 02:33:30;;;;;;;;;;;11.00;99.90;;;;;;5088641;28;20293;-64
2022/03/27 02:35:58;;;;;;;;;;;11.00;99.90;;;;;;5084992;28;19930;-62
2022/03/27 02:38:26;;;;;;;;;;;11.10;99.90;;;;;;5087944;28;19930;-62
2022/03/27 02:40:53;;;;;;;;;;;11.10;99.90;;;;;;5090780;28;19924;-62
2022/03/27 02:43:21;;;;;;;;;;;11.10;99.90;;;;;;5090608;28;19924;-63
2022/03/27 02:45:50;;;;;;;;;;;11.10;99.90;;;;;;5090726;28;20001;-63
2022/03/27 02:48:19;;;;;;;;;;;11.00;99.90;;;;;;5091277;28;19931;-63
2022/03/27 02:50:47;;;;;;;;;;;11.00;99.90;;;;;;5091676;28;19924;-63
2022/03/27 02:53:14;;;;;;;;;;;11.00;99.90;;;;;;5088435;28;20023;-62
2022/03/27 02:55:42;;;;;;;;;;;10.90;99.90;;;;;;5091496;28;19928;-63
2022/03/27 02:58:11;;;;;;;;;;;11.00;99.90;;;;;;5091114;28;20332;-63
2022/03/27 03:00:40;;;;;;;;;;;11.00;99.90;;;;;;5088754;28;19925;-62
2022/03/27 03:03:08;;;;;;;;;;;11.00;99.90;;;;;;5089018;28;19924;-63
2022/03/27 03:05:38;;;;;;;;;;;11.10;99.90;;;;;;5084275;28;19978;-62
2022/03/27 03:08:11;;;;;;;;;;;11.00;99.90;;;;;;5087500;28;19976;-63
2022/03/27 03:10:39;;;;;;;;;;;11.00;99.90;;;;;;5086924;28;19928;-63
2022/03/27 03:13:08;;;;;;;;;;;11.10;99.90;;;;;;5089963;28;20534;-63
2022/03/27 03:15:37;;;;;;;;;;;11.00;99.90;;;;;;5091459;28;19975;-62
2022/03/27 03:18:05;;;;;;;;;;;11.00;99.90;;;;;;5090258;28;20312;-63
2022/03/27 03:20:33;;;;;;;;;;;10.90;99.90;;;;;;5091295;28;20376;-63
2022/03/27 03:23:06;;;;;;;;;;;10.90;99.90;;;;;;5090207;28;19938;-62
2022/03/27 03:25:34;;;;;;;;;;;10.90;99.90;;;;;;5087260;28;19946;-63
2022/03/27 03:28:22;;;;;;;;;;;10.90;99.90;;;;;;5085662;28;19924;-63
2022/03/27 03:30:50;;;;;;;;;;;10.80;99.90;;;;;;5091142;28;19963;-63
2022/03/27 03:33:18;;;;;;;;;;;10.80;99.90;;;;;;5086395;28;19932;-63
2022/03/27 03:35:46;;;;;;;;;;;10.80;99.90;;;;;;5089534;28;20053;-63
2022/03/27 03:38:15;;;;;;;;;;;10.80;99.90;;;;;;5086780;28;20019;-63
2022/03/27 03:40:43;;;;;;;;;;;10.80;99.90;;;;;;5091052;28;19939;-62
2022/03/27 03:43:11;;;;;;;;;;;10.80;99.90;;;;;;5086908;28;19950;-63
2022/03/27 03:45:38;;;;;;;;;;;10.80;99.90;;;;;;5091006;28;20030;-63
2022/03/27 03:48:07;;;;;;;;;;;10.80;99.90;;;;;;5089704;28;19967;-63
2022/03/27 03:50:35;;;;;;;;;;;10.70;99.90;;;;;;5091102;28;20016;-63
2022/03/27 03:53:03;;;;;;;;;;;10.70;99.90;;;;;;5092563;28;19951;-63
2022/03/27 03:55:33;;;;;;;;;;;10.70;99.90;;;;;;5094744;28;20162;-63
2022/03/27 03:58:00;;;;;;;;;;;10.60;99.90;;;;;;5090190;28;20019;-63
2022/03/27 04:00:28;;;;;;;;;;;10.60;99.90;;;;;;5094106;28;19928;-63
2022/03/27 04:02:56;;;;;;;;;;;10.60;99.90;;;;;;5086141;28;19928;-63
2022/03/27 04:05:24;;;;;;;;;;;10.50;99.90;;;;;;5085167;28;19924;-63
2022/03/27 04:07:52;;;;;;;;;;;10.60;99.90;;;;;;5091703;28;20424;-63
2022/03/27 04:10:19;;;;;;;;;;;10.60;99.90;;;;;;5094176;28;20357;-63
2022/03/27 04:12:48;;;;;;;;;;;10.50;99.90;;;;;;5091969;28;20012;-63
2022/03/27 04:15:16;;;;;;;;;;;10.60;99.90;;;;;;5093655;28;20032;-63
2022/03/27 04:17:44;;;;;;;;;;;10.50;99.90;;;;;;5093085;28;20038;-62
2022/03/27 04:20:12;;;;;;;;;;;10.50;99.90;;;;;;5093460;28;19951;-63
2022/03/27 04:22:40;;;;;;;;;;;10.60;99.90;;;;;;5088888;28;19969;-63
2022/03/27 04:25:09;;;;;;;;;;;10.40;99.90;;;;;;5092412;28;19970;-63
2022/03/27 04:27:37;;;;;;;;;;;10.40;99.90;;;;;;5093826;28;20018;-64
2022/03/27 04:30:08;;;;;;;;;;;10.40;99.90;;;;;;5092259;28;20010;-63
2022/03/27 04:32:35;;;;;;;;;;;10.40;99.90;;;;;;5092760;28;19977;-63
2022/03/27 04:35:03;;;;;;;;;;;10.30;99.90;;;;;;5087653;28;19967;-63
2022/03/27 04:37:31;;;;;;;;;;;10.30;99.90;;;;;;5092645;28;19950;-63
2022/03/27 04:40:02;;;;;;;;;;;10.30;99.90;;;;;;5093623;28;20018;-63
2022/03/27 04:42:30;;;;;;;;;;;10.20;99.90;;;;;;5092080;28;19935;-63
2022/03/27 04:44:58;;;;;;;;;;;10.20;99.90;;;;;;5090698;28;21321;-62
2022/03/27 04:47:27;;;;;;;;;;;10.20;99.90;;;;;;5091851;28;20023;-64
2022/03/27 04:49:55;;;;;;;;;;;10.20;99.90;;;;;;5093559;28;20030;-63
2022/03/27 04:52:22;;;;;;;;;;;10.20;99.90;;;;;;5089297;28;20027;-62
2022/03/27 04:54:50;;;;;;;;;;;10.10;99.90;;;;;;5091942;28;20023;-63
2022/03/27 04:57:18;;;;;;;;;;;10.10;99.90;;;;;;5092758;28;20026;-63
2022/03/27 04:59:45;;;;;;;;;;;10.10;99.90;;;;;;5093017;28;19967;-63
2022/03/27 05:02:13;;;;;;;;;;;10.10;99.90;;;;;;5090752;28;20049;-63
2022/03/27 05:04:42;;;;;;;;;;;10.10;99.90;;;;;;5084880;28;19970;-63
2022/03/27 05:07:10;;;;;;;;;;;10.00;99.90;;;;;;5081588;28;20015;-63
2022/03/27 05:09:38;;;;;;;;;;;10.00;99.90;;;;;;5092371;28;20060;-63
2022/03/27 05:12:06;;;;;;;;;;;10.00;99.90;;;;;;5088342;28;19959;-64
2022/03/27 05:14:33;;;;;;;;;;;10.00;99.90;;;;;;5092037;28;20053;-63
2022/03/27 05:17:03;;;;;;;;;;;10.00;99.90;;;;;;5093247;28;20027;-63
2022/03/27 05:19:30;;;;;;;;;;;9.90;99.90;;;;;;5091457;28;20343;-63
2022/03/27 05:21:59;;;;;;;;;;;9.90;99.90;;;;;;5092921;28;20053;-63
2022/03/27 05:24:28;;;;;;;;;;;9.90;99.90;;;;;;5089378;28;20373;-63
2022/03/27 05:26:56;;;;;;;;;;;9.90;99.90;;;;;;5088930;28;20049;-64
2022/03/27 05:29:24;;;;;;;;;;;9.80;99.90;;;;;;5084659;28;20019;-62
2022/03/27 05:31:52;;;;;;;;;;;9.80;99.90;;;;;;5092698;28;19931;-63
2022/03/27 05:34:20;;;;;;;;;;;9.80;99.90;;;;;;5091282;28;19924;-63
2022/03/27 05:36:47;;;;;;;;;;;9.80;99.90;;;;;;5092983;28;20007;-63
2022/03/27 05:39:16;;;;;;;;;;;9.80;99.90;;;;;;5090523;28;20001;-63
2022/03/27 05:41:44;;;;;;;;;;;9.80;99.90;;;;;;5092673;28;20045;-63
2022/03/27 05:44:12;;;;;;;;;;;9.80;99.90;;;;;;5091376;28;19924;-63
2022/03/27 05:46:40;;;;;;;;;;;9.80;99.90;;;;;;5088409;28;19924;-63
2022/03/27 05:49:08;;;;;;;;;;;9.90;99.90;;;;;;5087860;28;20409;-62
2022/03/27 05:51:35;;;;;;;;;;;9.90;99.90;;;;;;5083864;28;20387;-62
2022/03/27 05:54:03;;;;;;;;;;;10.00;99.90;;;;;;5080211;28;19954;-63
2022/03/27 05:56:32;;;;;;;;;;;10.10;99.90;;;;;;5084891;28;20052;-62
2022/03/27 05:59:00;;;;;;;;;;;10.20;99.90;;;;;;5084913;28;20061;-62
2022/03/27 06:01:28;;;;;;;;;;;10.30;99.90;;;;;;5087235;28;20451;-63
2022/03/27 06:03:56;;;;;;;;;;;10.40;99.90;;;;;;5079241;28;19965;-62
2022/03/27 06:06:24;;;;;;;;;;;10.40;99.90;;;;;;5084030;28;19985;-63
2022/03/27 06:08:57;;;;;;;;;;;10.50;99.90;;;;;;5084585;28;19982;-62
2022/03/27 06:11:24;;;;;;;;;;;10.60;99.90;;;;;;5079091;28;20057;-64
2022/03/27 06:13:53;;;;;;;;;;;10.70;99.90;;;;;;5062784;28;19968;-63
2022/03/27 06:16:21;;;;;;;;;;;10.80;99.90;;;;;;5044339;28;19962;-63
2022/03/27 06:18:49;;;;;;;;;;;10.90;99.90;;;;;;5061659;28;20489;-64
2022/03/27 06:21:17;;;;;;;;;;;11.00;99.90;;;;;;5063644;28;20718;-63
2022/03/27 06:23:46;;;;;;;;;;;11.00;99.90;;;;;;5061186;28;20386;-63
2022/03/27 06:26:14;;;;;;;;;;;11.00;99.90;;;;;;5063264;28;20100;-63
2022/03/27 06:28:42;;;;;;;;;;;11.00;99.90;;;;;;5058924;28;20061;-63
2022/03/27 06:31:11;;;;;;;;;;;11.10;99.90;;;;;;5060111;28;19959;-63
2022/03/27 06:33:39;;;;;;;;;;;11.20;99.90;;;;;;5059287;28;19932;-63
2022/03/27 06:36:07;;;;;;;;;;;11.30;99.90;;;;;;5059025;28;20061;-63
2022/03/27 06:38:34;;;;;;;;;;;11.40;99.90;;;;;;5061472;28;20397;-63
2022/03/27 06:41:03;;;;;;;;;;;11.40;99.90;;;;;;5060035;28;20066;-63
2022/03/27 06:43:31;;;;;;;;;;;11.40;99.90;;;;;;5058837;28;19962;-63
2022/03/27 06:45:59;;;;;;;;;;;11.50;99.90;;;;;;5061657;28;19963;-64
2022/03/27 06:48:28;;;;;;;;;;;11.70;99.90;;;;;;5063022;28;19972;-63
2022/03/27 06:50:56;;;;;;;;;;;11.80;99.90;;;;;;5060813;28;20593;-62
2022/03/27 06:53:24;;;;;;;;;;;11.80;99.90;;;;;;5040790;28;20443;-64
2022/03/27 06:55:52;;;;;;;;;;;11.80;99.90;;;;;;5067985;28;20039;-62
2022/03/27 06:58:20;;;;;;;;;;;11.80;99.90;;;;;;5060174;28;20381;-63
2022/03/27 07:03:35;;;;;;;;;;;11.70;99.90;;;;;;5062392;28;20784;-64
2022/03/27 07:06:03;;;;;;;;;;;11.50;99.90;;;;;;5060263;28;20369;-62
2022/03/27 07:08:30;;;;;;;;;;;11.80;99.90;;;;;;5064043;28;19971;-63
2022/03/27 07:10:58;;;;;;;;;;;12.00;99.90;;;;;;5061702;28;19932;-63
2022/03/27 07:13:26;;;;;;;;;;;12.00;99.90;;;;;;5062648;28;20008;-63
2022/03/27 07:15:54;;;;;;;;;;;12.10;99.90;;;;;;5058504;28;20012;-63
2022/03/27 07:18:22;;;;;;;;;;;12.20;99.90;;;;;;5066122;28;19955;-63
2022/03/27 07:20:51;;;;;;;;;;;12.30;99.90;;;;;;5059238;28;20663;-63
2022/03/27 07:23:20;;;;;;;;;;;12.40;99.90;;;;;;5061784;28;20039;-63
2022/03/27 07:25:48;;;;;;;;;;;12.60;99.90;;;;;;5061645;28;20046;-63
2022/03/27 07:28:16;;;;;;;;;;;12.70;99.90;;;;;;5064035;28;19981;-63
2022/03/27 07:30:45;;;;;;;;;;;12.80;99.90;;;;;;5063003;28;19928;-63
2022/03/27 07:33:13;;;;;;;;;;;13.00;99.90;;;;;;5067434;28;20312;-63
2022/03/27 07:35:41;;;;;;;;;;;13.10;99.90;;;;;;5062068;28;19942;-62
2022/03/27 07:38:10;;;;;;;;;;;13.30;99.90;;;;;;5066523;28;19962;-63
2022/03/27 07:40:38;;;;;;;;;;;13.40;99.90;;;;;;5065571;28;20016;-64
2022/03/27 07:43:06;;;;;;;;;;;13.60;99.90;;;;;;5063293;28;20001;-63
2022/03/27 07:45:35;;;;;;;;;;;13.70;99.90;;;;;;5063546;28;19962;-63
2022/03/27 07:48:04;;;;;;;;;;;13.90;99.90;;;;;;5066864;28;19962;-62
2022/03/27 07:50:32;;;;;;;;;;;14.00;99.90;;;;;;5068891;28;20085;-63
2022/03/27 07:53:00;;;;;;;;;;;14.10;99.90;;;;;;5068583;28;19963;-61
2022/03/27 07:55:29;;;;;;;;;;;14.30;99.90;;;;;;5064417;28;20005;-61
2022/03/27 07:57:57;;;;;;;;;;;14.50;99.90;;;;;;5063596;28;20057;-61
2022/03/27 08:00:27;;;;;;;;;;;14.70;99.90;;;;;;5063404;28;19989;-61
2022/03/27 08:02:55;;;;;;;;;;;14.80;99.90;;;;;;5065985;28;20428;-62
2022/03/27 08:05:24;;;;;;;;;;;14.90;99.90;;;;;;5064040;28;19932;-62
2022/03/27 08:07:51;;;;;;;;;;;15.00;99.90;;;;;;5066405;28;20057;-61
2022/03/27 08:10:20;;;;;;;;;;;15.10;99.90;;;;;;5065976;28;20015;-61
2022/03/27 08:12:49;;;;;;;;;;;15.10;99.90;;;;;;5067234;28;19968;-62
2022/03/27 08:15:18;;;;;;;;;;;15.20;99.90;;;;;;5061553;28;20463;-61
2022/03/27 08:17:51;;;;;;;;;;;15.30;99.90;;;;;;5069023;28;19963;-61
2022/03/27 08:20:19;;;;;;;;;;;15.60;99.90;;;;;;5070845;28;19977;-62
2022/03/27 08:22:47;;;;;;;;;;;15.70;99.90;;;;;;5062261;28;19928;-62
2022/03/27 08:26:55;;;;;;;;;;;16.00;99.90;;;;;;5060503;28;20519;-62
2022/03/27 08:28:03;;;;;;;;;;;16.10;99.90;;;;;;5069675;28;20631;-62
2022/03/27 08:30:31;;;;;;;;;;;16.30;99.90;;;;;;5063288;28;20006;-63
2022/03/27 08:32:59;;;;;;;;;;;16.50;99.90;;;;;;5062594;28;19962;-62
2022/03/27 08:35:27;;;;;;;;;;;16.70;99.90;;;;;;5064379;28;19939;-62
2022/03/27 08:37:54;;;;;;;;;;;16.80;99.90;;;;;;5067146;28;19968;-61
2022/03/27 08:40:22;;;;;;;;;;;16.90;99.90;;;;;;5066366;28;19996;-63
2022/03/27 08:42:50;;;;;;;;;;;16.90;99.90;;;;;;5061907;28;19966;-63
2022/03/27 08:45:19;;;;;;;;;;;17.10;99.90;;;;;;5063903;28;20463;-62
2022/03/27 08:47:48;;;;;;;;;;;17.20;99.90;;;;;;5060319;28;19969;-62
2022/03/27 08:50:27;;;;;;;;;;;17.40;99.90;;;;;;5061879;28;20016;-62
2022/03/27 08:52:55;;;;;;;;;;;17.70;99.90;;;;;;5063696;28;20082;-64
2022/03/27 08:55:28;;;;;;;;;;;17.70;99.90;;;;;;5060603;28;19963;-63
2022/03/27 08:57:57;;;;;;;;;;;17.70;99.90;;;;;;5062409;28;21254;-62
2022/03/27 09:00:28;;;;;;;;;;;17.70;99.90;;;;;;5065036;28;19943;-63
2022/03/27 09:02:58;;;;;;;;;;;17.70;99.90;;;;;;5066011;28;19932;-62
2022/03/27 09:05:26;;;;;;;;;;;17.80;99.90;;;;;;5060832;28;19932;-62
2022/03/27 09:07:54;;;;;;;;;;;18.00;99.90;;;;;;5061214;28;20956;-62
2022/03/27 09:10:23;;;;;;;;;;;18.20;99.90;;;;;;5062254;28;20018;-63
2022/03/27 09:12:51;;;;;;;;;;;18.10;99.90;;;;;;5065279;28;20062;-62
2022/03/27 09:15:19;;;;;;;;;;;18.40;99.90;;;;;;5059471;28;19975;-62
2022/03/27 09:17:59;;;;;;;;;;;18.40;99.90;;;;;;5067874;28;20781;-63
2022/03/27 09:20:38;;;;;;;;;;;18.40;99.90;;;;;;5061749;28;20053;-63
2022/03/27 09:23:12;;;;;;;;;;;18.40;99.90;;;;;;5062739;28;19976;-63
2022/03/27 09:25:44;;;;;;;;;;;18.80;99.90;;;;;;5064363;28;19965;-63
2022/03/27 09:28:12;;;;;;;;;;;19.10;99.90;;;;;;5069059;28;19958;-63
2022/03/27 09:30:40;;;;;;;;;;;19.50;99.90;;;;;;5064287;28;19929;-63
2022/03/27 09:33:09;;;;;;;;;;;19.70;99.70;;;;;;5062222;28;19973;-63
2022/03/27 09:35:37;;;;;;;;;;;19.50;99.50;;;;;;5064775;28;19932;-62
2022/03/27 09:38:12;;;;;;;;;;;19.70;99.40;;;;;;5066160;28;19929;-63
2022/03/27 09:40:40;;;;;;;;;;;19.60;99.00;;;;;;5061741;28;19959;-64
2022/03/27 09:43:11;;;;;;;;;;;19.80;99.00;;;;;;5061922;28;20096;-62
2022/03/27 09:45:39;;;;;;;;;;;20.00;98.90;;;;;;5060806;28;20014;-63
2022/03/27 09:48:10;;;;;;;;;;;20.10;98.40;;;;;;5062423;28;19939;-62
2022/03/27 09:50:38;;;;;;;;;;;20.10;98.00;;;;;;5046140;28;19963;-63
2022/03/27 09:53:19;;;;;;;;;;;20.50;97.70;;;;;;5066773;28;20009;-63
2022/03/27 09:55:52;;;;;;;;;;;20.70;96.90;;;;;;5062651;28;20027;-62
2022/03/27 09:58:33;;;;;;;;;;;20.70;95.80;;;;;;5062554;28;19954;-63
2022/03/27 10:01:07;;;;;;;;;;;20.50;96.70;;;;;;5068932;28;19933;-64
2022/03/27 10:03:55;;;;;;;;;;;20.60;96.40;;;;;;5043423;28;19975;-61
2022/03/27 10:06:27;;;;;;;;;;;20.80;96.50;;;;;;5060708;28;20425;-62
2022/03/27 10:08:55;;;;;;;;;;;20.90;95.20;;;;;;5061183;28;20039;-61
2022/03/27 10:11:23;;;;;;;;;;;21.00;95.10;;;;;;5065174;28;20472;-62
2022/03/27 10:13:52;;;;;;;;;;;21.30;95.10;;;;;;5058571;28;19932;-62
2022/03/27 10:16:30;;;;;;;;;;;21.60;94.40;;;;;;5061363;28;19978;-62
2022/03/27 10:19:02;;;;;;;;;;;21.60;93.40;;;;;;5059955;28;19933;-63
2022/03/27 10:21:30;;;;;;;;;;;21.60;93.60;;;;;;5060020;28;20680;-62
2022/03/27 10:24:07;;;;;;;;;;;22.00;93.10;;;;;;5063368;28;21484;-62
2022/03/27 10:26:38;;;;;;;;;;;22.00;92.90;;;;;;5061213;28;20023;-62
2022/03/27 10:29:06;;;;;;;;;;;22.20;92.60;;;;;;5061550;28;20022;-61
2022/03/27 10:31:33;;;;;;;;;;;22.30;92.30;;;;;;5069152;28;20051;-62
2022/03/27 10:34:04;;;;;;;;;;;22.60;91.70;;;;;;5058515;28;19932;-62
2022/03/27 10:36:36;;;;;;;;;;;22.60;91.40;;;;;;5060411;28;19932;-62
2022/03/27 10:39:09;;;;;;;;;;;22.90;91.10;;;;;;5064024;28;19996;-62
2022/03/27 10:41:39;;;;;;;;;;;22.80;91.00;;;;;;5061744;28;20511;-62
2022/03/27 10:44:11;;;;;;;;;;;22.70;91.00;;;;;;5057978;28;19933;-62
2022/03/27 10:46:39;;;;;;;;;;;22.70;90.70;;;;;;5062297;28;20661;-61
2022/03/27 10:49:12;;;;;;;;;;;22.70;90.40;;;;;;5066159;28;20058;-62
2022/03/27 10:51:41;;;;;;;;;;;22.30;90.40;;;;;;5060581;28;20452;-62
2022/03/27 10:54:09;;;;;;;;;;;22.50;90.30;;;;;;5061379;28;19933;-62
2022/03/27 10:56:39;;;;;;;;;;;22.30;90.10;;;;;;5061653;28;19964;-61
2022/03/27 10:59:24;;;;;;;;;;;22.60;90.30;;;;;;5062440;28;19932;-63
2022/03/27 11:01:53;;;;;;;;;;;23.00;88.80;;;;;;5070294;28;20054;-62
2022/03/27 11:04:25;;;;;;;;;;;23.20;88.40;;;;;;5062740;28;19935;-63
2022/03/27 11:06:53;;;;;;;;;;;23.60;89.30;;;;;;5063895;28;19939;-62
2022/03/27 11:09:31;;;;;;;;;;;24.00;87.40;;;;;;5064388;28;19932;-62
2022/03/27 11:11:59;;;;;;;;;;;24.50;85.50;;;;;;5067904;28;20435;-62
2022/03/27 11:14:51;;;;;;;;;;;24.50;83.20;;;;;;5064904;28;19978;-62
2022/03/27 11:17:30;;;;;;;;;;;24.40;83.10;;;;;;5070283;28;20019;-63
2022/03/27 11:20:00;;;;;;;;;;;24.70;82.30;;;;;;5064194;28;20058;-62
2022/03/27 11:22:45;;;;;;;;;;;24.60;80.90;;;;;;5065575;28;20022;-64
2022/03/27 11:25:29;;;;;;;;;;;24.80;79.60;;;;;;5062704;28;20409;-63
2022/03/27 11:27:57;;;;;;;;;;;25.20;77.40;;;;;;5071658;28;19932;-62
2022/03/27 11:30:25;;;;;;;;;;;25.10;78.60;;;;;;5063998;28;20035;-62
2022/03/27 11:33:12;;;;;;;;;;;25.00;74.00;;;;;;5066966;28;19928;-62
2022/03/27 11:35:43;;;;;;;;;;;24.80;74.50;;;;;;5061619;28;19928;-62
2022/03/27 11:38:21;;;;;;;;;;;24.80;74.90;;;;;;5064775;28;19933;-63
2022/03/27 11:40:48;;;;;;;;;;;25.10;74.70;;;;;;5067337;28;19932;-62
2022/03/27 11:43:26;;;;;;;;;;;25.50;75.50;;;;;;5063477;28;19935;-62
2022/03/27 11:45:55;;;;;;;;;;;25.40;75.10;;;;;;5060123;28;19968;-62
2022/03/27 11:48:23;;;;;;;;;;;25.40;73.80;;;;;;5068772;28;19928;-63
2022/03/27 11:50:53;;;;;;;;;;;25.20;76.30;;;;;;5079164;28;20293;-62
2022/03/27 11:53:31;;;;;;;;;;;25.40;75.20;;;;;;5084588;28;20317;-62
2022/03/27 11:56:06;;;;;;;;;;;25.10;75.60;;;;;;5085576;28;19938;-62
2022/03/27 11:58:35;;;;;;;;;;;24.90;73.70;;;;;;5087790;28;20007;-62
2022/03/27 12:01:03;;;;;;;;;;;25.00;74.90;;;;;;5093119;28;20309;-61
2022/03/27 12:03:31;;;;;;;;;;;24.80;74.60;;;;;;5090897;28;19931;-62
2022/03/27 12:06:07;;;;;;;;;;;25.00;74.00;;;;;;5093007;28;19971;-62
2022/03/27 12:08:35;;;;;;;;;;;25.20;73.10;;;;;;5090468;28;19964;-61
2022/03/27 12:11:07;;;;;;;;;;;25.30;73.00;;;;;;5090596;28;20028;-63
2022/03/27 12:13:35;;;;;;;;;;;25.40;74.00;;;;;;5086401;28;19931;-64
2022/03/27 12:16:03;;;;;;;;;;;25.30;72.60;;;;;;5092545;28;19924;-63
2022/03/27 12:18:32;;;;;;;;;;;25.40;72.60;;;;;;5093247;28;20396;-63
2022/03/27 12:21:00;;;;;;;;;;;25.50;73.30;;;;;;5094268;28;20022;-63
2022/03/27 12:23:31;;;;;;;;;;;25.50;74.30;;;;;;5093989;28;20443;-63
2022/03/27 12:26:00;;;;;;;;;;;26.10;72.10;;;;;;5092535;28;19982;-62
2022/03/27 12:31:20;;;;;;;;;;;26.00;72.70;;;;;;5094254;28;19959;-64
2022/03/27 12:33:48;;;;;;;;;;;26.10;70.70;;;;;;5093828;28;20016;-63
2022/03/27 12:36:21;;;;;;;;;;;25.70;71.00;;;;;;5093887;28;19950;-63
2022/03/27 12:38:50;;;;;;;;;;;26.10;70.60;;;;;;5087574;28;19935;-65
2022/03/27 12:41:33;;;;;;;;;;;26.00;70.60;;;;;;5087814;28;19997;-67
2022/03/27 12:44:01;;;;;;;;;;;25.70;71.30;;;;;;5093651;28;20015;-63
2022/03/27 12:46:31;;;;;;;;;;;25.90;71.60;;;;;;5093656;28;19924;-64
2022/03/27 12:48:59;;;;;;;;;;;26.10;69.70;;;;;;5093645;28;19924;-64
2022/03/27 12:51:27;;;;;;;;;;;25.90;70.50;;;;;;5093714;28;20375;-62
2022/03/27 12:54:04;;;;;;;;;;;25.90;70.20;;;;;;5093787;28;19924;-64
2022/03/27 12:56:32;;;;;;;;;;;25.60;69.90;;;;;;5087962;28;20011;-63
2022/03/27 12:58:59;;;;;;;;;;;25.50;70.40;;;;;;5092887;28;20027;-63
2022/03/27 13:01:27;;;;;;;;;;;25.40;70.60;;;;;;5093581;28;20002;-64
2022/03/27 13:04:02;;;;;;;;;;;25.60;70.30;;;;;;5093445;28;19928;-65
2022/03/27 13:06:33;;;;;;;;;;;25.70;70.40;;;;;;5093215;28;19932;-63
2022/03/27 13:09:03;;;;;;;;;;;25.80;69.60;;;;;;5093305;28;19967;-60
2022/03/27 13:11:38;;;;;;;;;;;26.00;70.50;;;;;;5093279;28;19967;-64
2022/03/27 13:14:06;;;;;;;;;;;26.00;69.20;;;;;;5093120;28;20035;-64
2022/03/27 13:16:35;;;;;;;;;;;26.40;68.90;;;;;;5093022;28;20217;-63
2022/03/27 13:19:03;;;;;;;;;;;26.30;69.40;;;;;;5093193;28;20392;-63
2022/03/27 13:21:32;;;;;;;;;;;26.20;69.00;;;;;;5093152;28;19977;-63
2022/03/27 13:24:00;;;;;;;;;;;26.00;68.60;;;;;;5073535;28;19966;-63
2022/03/27 13:26:28;;;;;;;;;;;25.70;70.10;;;;;;5090081;28;19950;-62
2022/03/27 13:28:57;;;;;;;;;;;25.50;70.10;;;;;;5092802;28;19950;-64
2022/03/27 13:31:26;;;;;;;;;;;25.40;71.20;;;;;;5092843;28;19971;-64
2022/03/27 13:33:54;;;;;;;;;;;25.70;71.60;;;;;;5092822;28;19931;-63
2022/03/27 13:36:21;;;;;;;;;;;25.90;70.20;;;;;;5092820;28;20014;-64
2022/03/27 13:38:49;;;;;;;;;;;26.20;70.00;;;;;;5092702;28;20464;-63
2022/03/27 13:44:18;;;;;;;;;;;25.90;71.20;;;;;;5010365;28;20028;-63
2022/03/27 13:46:46;;;;;;;;;;;25.70;70.70;;;;;;5069733;28;19963;-65
2022/03/27 13:49:14;;;;;;;;;;;25.70;70.10;;;;;;5092549;28;19925;-64
2022/03/27 13:51:42;;;;;;;;;;;25.50;70.20;;;;;;5092736;28;20011;-64
2022/03/27 13:54:10;;;;;;;;;;;25.60;71.30;;;;;;5092346;28;19936;-64
2022/03/27 13:56:40;;;;;;;;;;;25.90;70.20;;;;;;5085372;28;19930;-67
2022/03/27 13:59:08;;;;;;;;;;;25.90;70.30;;;;;;5092078;28;19970;-63
2022/03/27 14:01:39;;;;;;;;;;;25.80;69.90;;;;;;5092339;28;20309;-63
2022/03/27 14:04:07;;;;;;;;;;;25.70;69.80;;;;;;5092137;28;19991;-64
2022/03/27 14:06:39;;;;;;;;;;;25.80;70.70;;;;;;5092305;28;20027;-65
2022/03/27 14:09:07;;;;;;;;;;;25.80;70.00;;;;;;5092267;28;19975;-63
2022/03/27 14:11:35;;;;;;;;;;;25.90;69.60;;;;;;5092286;28;20022;-63
2022/03/27 14:14:04;;;;;;;;;;;25.60;70.00;;;;;;5091913;28;19964;-63
2022/03/27 14:16:32;;;;;;;;;;;25.40;69.60;;;;;;5092121;28;20019;-64
2022/03/27 14:19:01;;;;;;;;;;;25.40;69.60;;;;;;5092182;28;19928;-64
2022/03/27 14:21:31;;;;;;;;;;;25.90;70.00;;;;;;5092156;28;19928;-63
2022/03/27 14:23:59;;;;;;;;;;;26.20;69.40;;;;;;5092045;28;19947;-63
2022/03/27 14:26:27;;;;;;;;;;;25.60;69.70;;;;;;5088014;28;20038;-63
2022/03/27 14:28:57;;;;;;;;;;;25.60;69.60;;;;;;5092106;28;19946;-63
2022/03/27 14:31:25;;;;;;;;;;;25.70;70.60;;;;;;5091805;28;19928;-64
2022/03/27 14:33:53;;;;;;;;;;;25.70;69.70;;;;;;5091767;28;19950;-65
2022/03/27 14:36:22;;;;;;;;;;;25.70;70.40;;;;;;5091562;28;19928;-64
2022/03/27 14:38:50;;;;;;;;;;;26.10;70.40;;;;;;5091839;28;19963;-64
2022/03/27 14:41:18;;;;;;;;;;;26.10;70.20;;;;;;5091774;28;19935;-65
2022/03/27 14:43:45;;;;;;;;;;;26.10;70.20;;;;;;5091769;28;20372;-64